Hlavní strana
METAR-TAF:

METAR-TAF

Letiště :

Lima, Ohio, Spojené státy americké

zeměpisná šířka: 40-42-29N, zeměpisná délka: 084-01-17W, výška: 297 m

Aktuální stav počasí

Zpráva byla vytvořena před 48 minutami, v 00:53 UTC
Západoseverozápadní vítr 9 kt
Teplota -2°C
Vlhkost vzduchu 63%
Tlak 1025 hPa
Viditelnost: 16.1 km
Jasno

METAR: KAOH 020053Z AUTO 29009KT 10SM CLR M02/M08 A3027 RMK AO2 SLP260 T10171078

Čas: 20:41 (01:41 UTC)


TAF: chybějící

Stav a předpovědi počasí z více než 4 000 letišť (zprávy METAR a TAF).

Červené a žluté tečky na mapě představují dostupné meteorologické stanice.

Když kurzor umístíte na tečku, zobrazí se název stanice.

Pak kliknutím zobrazíte stav a předpověď počasí.

Chcete-li změnit mapu, kliknutím na zelené tlačítko se znaménkem +mapu přiblížíte, kliknutím na zelené tlačítko se znaménkem – mapu oddálíte a kliknutím na zelené šipky přejdete na sousední mapy.


METAR-TAF: